createdAt,value
2017-10-23T00:00:05.624Z,100118.27
2017-10-23T00:01:11.398Z,100116.59
2017-10-23T00:02:17.168Z,100118.81
2017-10-23T00:03:22.936Z,100116.89
2017-10-23T00:04:28.728Z,100117.02
2017-10-23T00:05:34.487Z,100115.91
2017-10-23T00:06:40.260Z,100122.02
2017-10-23T00:07:46.784Z,100113.36
2017-10-23T00:08:52.553Z,100120.77
2017-10-23T00:09:59.113Z,100114.71
2017-10-23T00:11:05.652Z,100121.25
2017-10-23T00:12:11.423Z,100113.62
2017-10-23T00:13:17.952Z,100119.73
2017-10-23T00:14:23.720Z,100121.61
2017-10-23T00:15:30.274Z,100118.96
2017-10-23T00:16:36.799Z,100119.38
2017-10-23T00:17:42.616Z,100119.80
2017-10-23T00:18:48.362Z,100118.95
2017-10-23T00:19:54.131Z,100111.04
2017-10-23T00:20:59.932Z,100117.56
2017-10-23T00:22:05.680Z,100119.39
2017-10-23T00:23:11.451Z,100116.33
2017-10-23T00:24:17.215Z,100118.20
2017-10-23T00:25:22.975Z,100117.78
2017-10-23T00:26:29.536Z,100119.17
2017-10-23T00:27:35.345Z,100118.41
2017-10-23T00:28:41.120Z,100117.22
2017-10-23T00:29:47.658Z,100116.47
2017-10-23T00:30:53.420Z,100114.39
2017-10-23T00:31:59.812Z,100113.82
2017-10-23T00:33:05.616Z,100115.70
2017-10-23T00:34:12.160Z,100110.58
2017-10-23T00:35:17.935Z,100116.34
2017-10-23T00:36:23.687Z,100114.31
2017-10-23T00:37:29.484Z,100117.86
2017-10-23T00:38:35.263Z,100123.59
2017-10-23T00:39:41.029Z,100120.34
2017-10-23T00:40:46.827Z,100124.36
2017-10-23T00:41:53.354Z,100126.02
2017-10-23T00:42:59.209Z,100122.55
2017-10-23T00:44:04.990Z,100121.81
2017-10-23T00:45:10.428Z,100124.73
2017-10-23T00:46:16.295Z,100121.59
2017-10-23T00:47:22.081Z,100123.61
2017-10-23T00:48:28.665Z,100122.22
2017-10-23T00:49:34.433Z,100119.72
2017-10-23T00:50:40.204Z,100122.30
2017-10-23T00:51:45.974Z,100128.94
2017-10-23T00:52:52.578Z,100126.81
2017-10-23T00:53:58.388Z,100121.34
2017-10-23T00:55:04.739Z,100118.13
2017-10-23T00:56:11.004Z,100121.80
2017-10-23T00:57:17.212Z,100128.47
2017-10-23T00:58:22.291Z,100121.61
2017-10-23T00:59:27.415Z,100120.83
2017-10-23T01:00:33.181Z,100125.60
2017-10-23T01:01:38.943Z,100123.02
2017-10-23T01:02:44.735Z,100121.09
2017-10-23T01:03:50.502Z,100125.66
2017-10-23T01:04:56.309Z,100124.22
2017-10-23T01:06:02.632Z,100122.25
2017-10-23T01:07:08.431Z,100125.91
2017-10-23T01:08:14.192Z,100120.41
2017-10-23T01:09:19.965Z,100123.41
2017-10-23T01:10:25.770Z,100118.41
2017-10-23T01:11:31.553Z,100122.28
2017-10-23T01:12:37.319Z,100117.85
2017-10-23T01:13:43.839Z,100119.86
2017-10-23T01:14:49.619Z,100119.00
2017-10-23T01:15:55.495Z,100119.53
2017-10-23T01:17:01.289Z,100117.84
2017-10-23T01:18:07.044Z,100117.30
2017-10-23T01:19:13.589Z,100118.61
2017-10-23T01:20:19.027Z,100117.22
2017-10-23T01:21:25.620Z,100116.58
2017-10-23T01:22:31.060Z,100108.78
2017-10-23T01:23:36.833Z,100117.50
2017-10-23T01:24:41.916Z,100110.40
2017-10-23T01:25:47.390Z,100117.28
2017-10-23T01:26:52.858Z,100113.60
2017-10-23T01:27:58.461Z,100112.92
2017-10-23T01:29:03.880Z,100116.87
2017-10-23T01:30:09.312Z,100109.52
2017-10-23T01:31:14.769Z,100112.70
2017-10-23T01:32:20.593Z,100117.89
2017-10-23T01:33:25.678Z,100111.65
2017-10-23T01:34:31.861Z,100113.83
2017-10-23T01:35:37.287Z,100115.69
2017-10-23T01:36:43.039Z,100115.61
2017-10-23T01:37:48.842Z,100118.63
2017-10-23T01:38:54.609Z,100121.59
2017-10-23T01:40:00.047Z,100120.53
2017-10-23T01:41:05.471Z,100125.92
2017-10-23T01:42:11.296Z,100123.97
2017-10-23T01:43:16.748Z,100127.45
2017-10-23T01:44:21.816Z,100129.87
2017-10-23T01:45:27.240Z,100128.80
2017-10-23T01:46:32.343Z,100131.69
2017-10-23T01:47:38.118Z,100128.37
2017-10-23T01:48:43.571Z,100131.22
2017-10-23T01:49:49.363Z,100138.05
2017-10-23T01:50:55.119Z,100140.77
2017-10-23T01:52:00.872Z,100136.31
2017-10-23T01:53:06.688Z,100137.25
2017-10-23T01:54:12.501Z,100139.16
2017-10-23T01:55:17.563Z,100142.08
2017-10-23T01:56:23.296Z,100141.66
2017-10-23T01:57:29.091Z,100144.25
2017-10-23T01:58:34.575Z,100138.78
2017-10-23T01:59:40.043Z,100143.87
2017-10-23T02:00:45.808Z,100144.28
2017-10-23T02:01:51.564Z,100141.81
2017-10-23T02:02:58.089Z,100145.51
2017-10-23T02:04:03.858Z,100141.69
2017-10-23T02:05:09.409Z,100133.66
2017-10-23T02:06:15.948Z,100144.32
2017-10-23T02:07:21.723Z,100145.37
2017-10-23T02:08:28.293Z,100145.87
2017-10-23T02:09:34.052Z,100147.28
2017-10-23T02:10:39.842Z,100143.04
2017-10-23T02:11:45.595Z,100146.22
2017-10-23T02:12:52.146Z,100145.59
2017-10-23T02:13:57.905Z,100146.44
2017-10-23T02:15:03.666Z,100143.54
2017-10-23T02:16:09.458Z,100140.83
2017-10-23T02:17:15.029Z,100142.48
2017-10-23T02:18:20.801Z,100148.85
2017-10-23T02:19:26.560Z,100145.20
2017-10-23T02:20:32.328Z,100144.91
2017-10-23T02:21:38.103Z,100147.63
2017-10-23T02:22:43.903Z,100149.72
2017-10-23T02:23:49.693Z,100146.20
2017-10-23T02:24:55.455Z,100148.53
2017-10-23T02:26:01.218Z,100149.00
2017-10-23T02:27:07.005Z,100150.02
2017-10-23T02:28:12.787Z,100151.21
2017-10-23T02:29:18.549Z,100151.59
2017-10-23T02:30:24.325Z,100150.19
2017-10-23T02:31:30.102Z,100153.29
2017-10-23T02:32:35.884Z,100152.53
2017-10-23T02:33:41.648Z,100152.78
2017-10-23T02:34:48.178Z,100145.57
2017-10-23T02:35:53.936Z,100147.69
2017-10-23T02:37:00.469Z,100147.26
2017-10-23T02:38:06.243Z,100150.32
2017-10-23T02:39:12.795Z,100144.67
2017-10-23T02:40:18.545Z,100153.59
2017-10-23T02:41:25.077Z,100147.09
2017-10-23T02:42:30.827Z,100153.33
2017-10-23T02:43:36.619Z,100154.73
2017-10-23T02:44:42.384Z,100155.41
2017-10-23T02:45:48.160Z,100154.52
2017-10-23T02:46:53.918Z,100156.77
2017-10-23T02:48:00.448Z,100155.24
2017-10-23T02:49:06.236Z,100154.64
2017-10-23T02:50:11.768Z,100154.35
2017-10-23T02:51:17.538Z,100158.59
2017-10-23T02:52:23.313Z,100158.63
2017-10-23T02:53:29.128Z,100157.53
2017-10-23T02:54:34.909Z,100153.24
2017-10-23T02:55:40.700Z,100163.85
2017-10-23T02:56:46.546Z,100162.41
2017-10-23T02:57:53.098Z,100168.73
2017-10-23T02:58:58.890Z,100167.50
2017-10-23T03:00:04.474Z,100165.92
2017-10-23T03:01:10.249Z,100170.64
2017-10-23T03:02:16.034Z,100168.64
2017-10-23T03:03:22.588Z,100171.70
2017-10-23T03:04:29.112Z,100175.98
2017-10-23T03:05:34.936Z,100179.50
2017-10-23T03:06:40.735Z,100177.29
2017-10-23T03:07:47.279Z,100177.21
2017-10-23T03:08:53.058Z,100180.90
2017-10-23T03:09:58.712Z,100176.53
2017-10-23T03:11:03.818Z,100181.83
2017-10-23T03:12:08.933Z,100181.41
2017-10-23T03:13:14.288Z,100176.09
2017-10-23T03:14:19.539Z,100181.38
2017-10-23T03:15:24.616Z,100178.75
2017-10-23T03:16:30.495Z,100177.35
2017-10-23T03:17:35.582Z,100183.77
2017-10-23T03:18:41.422Z,100177.93
2017-10-23T03:19:47.292Z,100177.70
2017-10-23T03:20:52.367Z,100179.39
2017-10-23T03:21:58.171Z,100174.14
2017-10-23T03:23:03.264Z,100176.14
2017-10-23T03:24:09.463Z,100170.95
2017-10-23T03:25:14.560Z,100177.27
2017-10-23T03:26:20.620Z,100175.80
2017-10-23T03:27:26.084Z,100179.80
2017-10-23T03:28:31.501Z,100171.48
2017-10-23T03:29:37.280Z,100175.44
2017-10-23T03:30:43.057Z,100175.43
2017-10-23T03:31:49.252Z,100175.64
2017-10-23T03:32:54.358Z,100181.12
2017-10-23T03:34:00.137Z,100181.88
2017-10-23T03:35:05.577Z,100176.27
2017-10-23T03:36:11.004Z,100177.30
2017-10-23T03:37:16.805Z,100178.56
2017-10-23T03:38:22.598Z,100178.36
2017-10-23T03:39:27.675Z,100180.59
2017-10-23T03:40:32.582Z,100177.83
2017-10-23T03:41:38.759Z,100183.30
2017-10-23T03:42:44.537Z,100182.47
2017-10-23T03:43:50.002Z,100186.34
2017-10-23T03:44:55.109Z,100183.30
2017-10-23T03:46:01.512Z,100189.59
2017-10-23T03:47:06.952Z,100186.41
2017-10-23T03:48:12.413Z,100186.34
2017-10-23T03:49:17.511Z,100190.11
2017-10-23T03:50:22.605Z,100193.58
2017-10-23T03:51:28.925Z,100195.44
2017-10-23T03:52:34.053Z,100201.28
2017-10-23T03:53:39.140Z,100197.17
2017-10-23T03:54:44.257Z,100200.94
2017-10-23T03:55:50.032Z,100199.17
2017-10-23T03:56:55.131Z,100197.72
2017-10-23T03:58:00.555Z,100198.48
2017-10-23T03:59:05.978Z,100196.91
2017-10-23T04:00:11.156Z,100191.42
2017-10-23T04:01:16.255Z,100191.77
2017-10-23T04:02:21.348Z,100196.14
2017-10-23T04:03:27.212Z,100191.84
2017-10-23T04:04:32.651Z,100195.53
2017-10-23T04:05:38.118Z,100197.54
2017-10-23T04:06:43.573Z,100195.24
2017-10-23T04:07:48.997Z,100200.16
2017-10-23T04:08:54.107Z,100205.78
2017-10-23T04:09:59.207Z,100204.81
2017-10-23T04:11:04.313Z,100207.73
2017-10-23T04:12:10.012Z,100205.36
2017-10-23T04:13:14.926Z,100199.06
2017-10-23T04:14:20.160Z,100201.28
2017-10-23T04:15:25.251Z,100200.72
2017-10-23T04:16:30.923Z,100203.37
2017-10-23T04:17:35.999Z,100198.84
2017-10-23T04:18:41.096Z,100206.84
2017-10-23T04:19:45.993Z,100210.09
2017-10-23T04:20:51.425Z,100203.37
2017-10-23T04:21:56.869Z,100201.87
2017-10-23T04:23:01.921Z,100199.02
2017-10-23T04:24:06.815Z,100199.86
2017-10-23T04:25:11.907Z,100208.19
2017-10-23T04:26:17.702Z,100201.23
2017-10-23T04:27:22.950Z,100197.96
2017-10-23T04:28:29.135Z,100196.78
2017-10-23T04:29:34.245Z,100201.72
2017-10-23T04:30:39.328Z,100211.45
2017-10-23T04:31:44.784Z,100207.00
2017-10-23T04:32:50.999Z,100199.63
2017-10-23T04:33:56.429Z,100201.49
2017-10-23T04:35:02.268Z,100201.92
2017-10-23T04:36:07.366Z,100201.77
2017-10-23T04:37:12.488Z,100203.36
2017-10-23T04:38:17.592Z,100204.25
2017-10-23T04:39:23.452Z,100205.59
2017-10-23T04:40:28.540Z,100204.14
2017-10-23T04:41:33.962Z,100207.96
2017-10-23T04:42:39.068Z,100205.12
2017-10-23T04:43:44.563Z,100210.37
2017-10-23T04:44:50.426Z,100205.94
2017-10-23T04:45:56.367Z,100208.86
2017-10-23T04:47:01.452Z,100209.28
2017-10-23T04:48:06.546Z,100212.89
2017-10-23T04:49:12.012Z,100209.89
2017-10-23T04:50:17.899Z,100211.56
2017-10-23T04:51:22.988Z,100215.71
2017-10-23T04:52:28.417Z,100213.91
2017-10-23T04:53:33.835Z,100207.83
2017-10-23T04:54:39.291Z,100211.02
2017-10-23T04:55:44.743Z,100207.54
2017-10-23T04:56:50.919Z,100204.76
2017-10-23T04:57:55.991Z,100211.13
2017-10-23T04:59:01.419Z,100214.54
2017-10-23T05:00:06.891Z,100205.73
2017-10-23T05:01:13.073Z,100206.55
2017-10-23T05:02:18.579Z,100208.08
2017-10-23T05:03:24.487Z,100206.27
2017-10-23T05:04:29.568Z,100203.84
2017-10-23T05:05:34.690Z,100206.75
2017-10-23T05:06:40.459Z,100201.35
2017-10-23T05:07:45.585Z,100203.30
2017-10-23T05:08:51.012Z,100204.06
2017-10-23T05:09:56.088Z,100209.02
2017-10-23T05:11:01.545Z,100210.75
2017-10-23T05:12:07.736Z,100208.95
2017-10-23T05:13:13.160Z,100209.03
2017-10-23T05:14:18.623Z,100212.98
2017-10-23T05:15:23.716Z,100216.53
2017-10-23T05:16:28.837Z,100219.08
2017-10-23T05:17:33.914Z,100211.96
2017-10-23T05:18:39.332Z,100216.30
2017-10-23T05:19:44.458Z,100217.44
2017-10-23T05:20:50.281Z,100218.33
2017-10-23T05:21:55.937Z,100217.23
2017-10-23T05:23:01.375Z,100213.12
2017-10-23T05:24:06.465Z,100221.23
2017-10-23T05:25:11.964Z,100220.73
2017-10-23T05:26:18.199Z,100219.80
2017-10-23T05:27:23.320Z,100224.55
2017-10-23T05:28:28.753Z,100222.90
2017-10-23T05:29:33.851Z,100222.61
2017-10-23T05:30:40.929Z,100222.73
2017-10-23T05:31:47.208Z,100226.16
2017-10-23T05:32:52.521Z,100223.89
2017-10-23T05:35:36.539Z,100225.25
2017-10-23T05:36:41.640Z,100220.23
2017-10-23T05:37:47.476Z,100231.78
2017-10-23T05:38:53.184Z,100226.85
2017-10-23T05:39:58.611Z,100224.38
2017-10-23T05:41:04.043Z,100230.77
2017-10-23T05:42:09.169Z,100229.84
2017-10-23T05:43:14.618Z,100232.91
2017-10-23T05:44:20.454Z,100230.34
2017-10-23T05:45:25.922Z,100232.98
2017-10-23T05:46:32.460Z,100233.14
2017-10-23T05:47:37.928Z,100233.95
2017-10-23T05:48:43.390Z,100234.35
2017-10-23T05:49:48.879Z,100241.11
2017-10-23T05:50:54.297Z,100238.27
2017-10-23T05:51:59.408Z,100233.41
2017-10-23T05:53:04.481Z,100236.40
2017-10-23T05:54:11.016Z,100233.20
2017-10-23T05:55:16.160Z,100227.78
2017-10-23T05:56:21.253Z,100229.73
2017-10-23T05:57:26.367Z,100233.81
2017-10-23T05:58:31.450Z,100232.88
2017-10-23T05:59:37.640Z,100230.37
2017-10-23T06:00:43.162Z,100230.08
2017-10-23T06:01:48.951Z,100233.55
2017-10-23T06:02:54.451Z,100234.92
2017-10-23T06:03:59.922Z,100235.08
2017-10-23T06:05:05.768Z,100235.06
2017-10-23T06:06:11.644Z,100234.32
2017-10-23T06:07:17.103Z,100232.81
2017-10-23T06:08:22.214Z,100229.82
2017-10-23T06:09:27.491Z,100233.86
2017-10-23T06:10:32.596Z,100234.32
2017-10-23T06:11:38.429Z,100238.88
2017-10-23T06:12:43.546Z,100244.09
2017-10-23T06:13:48.902Z,100245.70
2017-10-23T06:14:54.136Z,100241.74
2017-10-23T06:15:59.916Z,100246.67
2017-10-23T06:17:06.144Z,100244.39
2017-10-23T06:18:11.989Z,100246.89
2017-10-23T06:19:17.786Z,100251.42
2017-10-23T06:20:23.065Z,100245.11
2017-10-23T06:21:28.934Z,100244.05
2017-10-23T06:22:34.825Z,100246.42
2017-10-23T06:23:40.080Z,100248.70
2017-10-23T06:24:45.934Z,100254.31
2017-10-23T06:25:51.093Z,100249.81
2017-10-23T06:26:56.742Z,100256.98
2017-10-23T06:28:02.208Z,100256.55
2017-10-23T06:29:07.504Z,100258.97
2017-10-23T06:30:12.768Z,100258.02
2017-10-23T06:31:17.855Z,100260.73
2017-10-23T06:32:23.325Z,100255.46
2017-10-23T06:33:28.446Z,100257.83
2017-10-23T06:34:33.909Z,100256.64
2017-10-23T06:35:39.728Z,100261.77
2017-10-23T06:36:45.182Z,100269.27
2017-10-23T06:37:50.677Z,100262.47
2017-10-23T06:38:56.155Z,100261.66
2017-10-23T06:40:01.260Z,100272.34
2017-10-23T06:41:07.118Z,100269.95
2017-10-23T06:42:12.548Z,100267.25
2017-10-23T06:43:18.389Z,100263.98
2017-10-23T06:44:24.223Z,100263.55
2017-10-23T06:45:29.324Z,100271.70
2017-10-23T06:46:35.104Z,100271.53
2017-10-23T06:47:40.905Z,100269.89
2017-10-23T06:48:45.998Z,100271.00
2017-10-23T06:49:51.890Z,100274.41
2017-10-23T06:50:57.668Z,100276.97
2017-10-23T06:52:03.121Z,100270.24
2017-10-23T06:53:08.889Z,100268.56
2017-10-23T06:54:14.018Z,100266.55
2017-10-23T06:55:19.156Z,100274.15
2017-10-23T06:56:24.630Z,100277.59
2017-10-23T06:57:30.222Z,100271.02
2017-10-23T06:58:35.490Z,100274.27
2017-10-23T06:59:41.299Z,100270.59
2017-10-23T07:00:46.770Z,100270.59
2017-10-23T07:01:52.203Z,100267.45
2017-10-23T07:02:57.666Z,100274.45
2017-10-23T07:04:03.045Z,100272.25
2017-10-23T07:05:08.132Z,100275.78
2017-10-23T07:06:13.595Z,100283.63
2017-10-23T07:07:18.518Z,100281.28
2017-10-23T07:08:23.980Z,100280.86
2017-10-23T07:09:29.599Z,100284.61
2017-10-23T07:10:34.698Z,100284.11
2017-10-23T07:11:40.935Z,100282.13
2017-10-23T07:12:46.364Z,100285.23
2017-10-23T07:13:51.459Z,100289.91
2017-10-23T07:14:56.895Z,100284.48
2017-10-23T07:16:02.328Z,100292.80
2017-10-23T07:17:07.457Z,100286.08
2017-10-23T07:18:12.910Z,100287.38
2017-10-23T07:19:17.980Z,100291.98
2017-10-23T07:20:23.421Z,100287.13
2017-10-23T07:21:28.880Z,100287.31
2017-10-23T07:22:34.758Z,100292.87
2017-10-23T07:23:40.232Z,100295.95
2017-10-23T07:24:46.003Z,100288.03
2017-10-23T07:25:51.452Z,100289.64
2017-10-23T07:26:57.235Z,100295.81
2017-10-23T07:28:03.796Z,100293.84
2017-10-23T07:29:09.223Z,100288.36
2017-10-23T07:30:15.412Z,100287.02
2017-10-23T07:31:21.191Z,100291.20
2017-10-23T07:32:26.987Z,100292.33
2017-10-23T07:33:32.790Z,100289.89
2017-10-23T07:34:39.336Z,100287.45
2017-10-23T07:35:44.512Z,100283.80
2017-10-23T07:36:50.282Z,100292.34
2017-10-23T07:37:56.048Z,100289.05
2017-10-23T07:39:01.830Z,100290.98
2017-10-23T07:40:07.620Z,100288.95
2017-10-23T07:41:13.400Z,100287.05
2017-10-23T07:42:19.589Z,100287.05
2017-10-23T07:43:25.356Z,100291.50
2017-10-23T07:44:30.833Z,100294.98
2017-10-23T07:45:37.034Z,100292.27
2017-10-23T07:46:42.801Z,100292.00
2017-10-23T07:47:48.569Z,100290.12
2017-10-23T07:48:54.180Z,100288.17
2017-10-23T07:49:59.976Z,100289.41
2017-10-23T07:51:05.769Z,100287.87
2017-10-23T07:52:12.318Z,100285.80
2017-10-23T07:53:18.087Z,100287.50
2017-10-23T07:54:23.864Z,100290.29
2017-10-23T07:55:29.326Z,100294.06
2017-10-23T07:56:35.101Z,100292.86
2017-10-23T07:57:41.675Z,100297.25
2017-10-23T07:58:47.434Z,100289.72
2017-10-23T07:59:53.204Z,100293.65
2017-10-23T08:00:59.084Z,100284.60
2017-10-23T08:02:05.287Z,100287.45
2017-10-23T08:03:11.064Z,100284.91
2017-10-23T08:04:16.858Z,100285.88
2017-10-23T08:05:22.632Z,100294.28
2017-10-23T08:06:28.424Z,100295.06
2017-10-23T08:07:34.185Z,100285.02
2017-10-23T08:08:39.965Z,100288.08
2017-10-23T08:09:45.714Z,100288.36
2017-10-23T08:10:51.491Z,100291.03
2017-10-23T08:11:57.284Z,100285.89
2017-10-23T08:13:03.061Z,100286.80
2017-10-23T08:14:08.835Z,100289.35
2017-10-23T08:15:14.594Z,100292.97
2017-10-23T08:16:20.347Z,100287.06
2017-10-23T08:17:26.142Z,100295.94
2017-10-23T08:18:32.661Z,100300.16
2017-10-23T08:19:38.444Z,100294.05
2017-10-23T08:20:44.208Z,100294.77
2017-10-23T08:21:49.984Z,100299.82
2017-10-23T08:22:55.579Z,100301.02
2017-10-23T08:24:01.337Z,100303.52
2017-10-23T08:25:07.101Z,100296.03
2017-10-23T08:26:12.860Z,100297.95
2017-10-23T08:27:18.617Z,100294.92
2017-10-23T08:28:25.204Z,100299.89
2017-10-23T08:29:31.050Z,100302.14
2017-10-23T08:30:36.814Z,100299.73
2017-10-23T08:31:42.606Z,100298.35
2017-10-23T08:32:49.131Z,100298.83
2017-10-23T08:33:54.924Z,100302.22
2017-10-23T08:35:00.689Z,100300.52
2017-10-23T08:36:06.452Z,100301.94
2017-10-23T08:37:12.022Z,100307.62
2017-10-23T08:38:18.574Z,100307.86
2017-10-23T08:39:24.356Z,100307.17
2017-10-23T08:40:30.138Z,100304.74
2017-10-23T08:41:36.170Z,100308.20
2017-10-23T08:42:41.934Z,100300.66
2017-10-23T08:43:47.695Z,100307.23
2017-10-23T08:44:54.260Z,100301.52
2017-10-23T08:46:00.019Z,100303.38
2017-10-23T08:47:05.798Z,100305.58
2017-10-23T08:48:11.558Z,100307.41
2017-10-23T08:49:17.326Z,100299.77
2017-10-23T08:50:23.584Z,100313.91
2017-10-23T08:51:29.419Z,100303.23
2017-10-23T08:52:35.951Z,100303.20
2017-10-23T08:53:41.724Z,100310.66
2017-10-23T08:54:47.917Z,100310.05
2017-10-23T08:55:53.376Z,100311.90
2017-10-23T08:56:59.126Z,100306.86
2017-10-23T08:58:04.546Z,100313.25
2017-10-23T08:59:10.151Z,100310.80
2017-10-23T09:00:15.242Z,100318.78
2017-10-23T09:01:21.126Z,100318.42
2017-10-23T09:02:26.886Z,100317.09
2017-10-23T09:03:32.664Z,100320.32
2017-10-23T09:04:37.892Z,100317.22
2017-10-23T09:05:44.433Z,100313.35
2017-10-23T09:06:50.085Z,100319.06
2017-10-23T09:07:56.143Z,100323.90
2017-10-23T09:09:02.277Z,100323.84
2017-10-23T09:10:08.104Z,100322.39
2017-10-23T09:11:13.698Z,100329.00
2017-10-23T09:12:20.248Z,100326.59
2017-10-23T09:13:26.616Z,100318.53
2017-10-23T09:14:32.392Z,100329.42
2017-10-23T09:16:42.653Z,100324.84
2017-10-23T09:17:48.489Z,100312.62
2017-10-23T09:18:54.088Z,100318.69
2017-10-23T09:20:00.609Z,100322.55
2017-10-23T09:21:06.265Z,100320.89
2017-10-23T09:22:12.045Z,100327.16
2017-10-23T09:23:17.859Z,100323.48
2017-10-23T09:24:24.392Z,100317.30
2017-10-23T09:25:30.161Z,100325.86
2017-10-23T09:26:36.705Z,100322.13
2017-10-23T09:27:42.477Z,100321.70
2017-10-23T09:28:48.276Z,100324.17
2017-10-23T09:29:54.048Z,100322.84
2017-10-23T09:31:00.576Z,100323.32
2017-10-23T09:32:06.410Z,100324.12
2017-10-23T09:33:12.181Z,100325.05
2017-10-23T09:34:17.649Z,100328.23
2017-10-23T09:35:24.178Z,100324.75
2017-10-23T09:36:30.057Z,100329.95
2017-10-23T09:37:35.815Z,100327.28
2017-10-23T09:38:41.595Z,100329.05
2017-10-23T09:39:47.387Z,100333.69
2017-10-23T09:40:53.423Z,100337.24
2017-10-23T09:41:59.192Z,100331.44
2017-10-23T09:43:04.990Z,100336.81
2017-10-23T09:44:11.552Z,100330.91
2017-10-23T09:45:18.139Z,100330.91
2017-10-23T09:46:23.908Z,100338.23
2017-10-23T09:47:29.677Z,100337.05
2017-10-23T09:48:35.435Z,100344.23
2017-10-23T09:49:41.972Z,100336.52
2017-10-23T09:50:47.776Z,100341.79
2017-10-23T09:51:53.544Z,100344.92
2017-10-23T09:52:59.326Z,100342.09
2017-10-23T09:54:05.857Z,100341.42
2017-10-23T09:55:11.627Z,100345.13
2017-10-23T09:56:17.545Z,100348.39
2017-10-23T09:57:23.312Z,100347.44
2017-10-23T09:58:29.844Z,100346.87
2017-10-23T09:59:35.611Z,100344.14
2017-10-23T10:00:41.928Z,100345.36
2017-10-23T10:01:47.742Z,100349.30
2017-10-23T10:02:53.510Z,100344.52
2017-10-23T10:03:59.281Z,100341.48
2017-10-23T10:05:05.069Z,100350.21
2017-10-23T10:06:10.843Z,100347.86
2017-10-23T10:07:16.638Z,100347.79
2017-10-23T10:08:22.413Z,100355.71
2017-10-23T10:09:28.167Z,100356.59
2017-10-23T10:10:33.929Z,100351.02
2017-10-23T10:11:39.704Z,100358.69
2017-10-23T10:12:45.503Z,100353.74
2017-10-23T10:13:51.259Z,100357.77
2017-10-23T10:14:57.019Z,100360.94
2017-10-23T10:16:03.568Z,100358.86
2017-10-23T10:17:10.104Z,100353.59
2017-10-23T10:18:15.904Z,100359.09
2017-10-23T10:19:21.664Z,100359.30
2017-10-23T10:20:27.439Z,100359.35
2017-10-23T10:21:33.206Z,100354.39
2017-10-23T10:22:39.738Z,100361.58
2017-10-23T10:23:45.525Z,100355.98
2017-10-23T10:24:51.289Z,100363.22
2017-10-23T10:25:57.058Z,100358.58
2017-10-23T10:27:02.839Z,100358.58
2017-10-23T10:28:09.366Z,100360.52
2017-10-23T10:29:15.169Z,100364.64
2017-10-23T10:30:20.929Z,100360.08
2017-10-23T10:31:26.699Z,100358.66
2017-10-23T10:32:32.466Z,100352.01
2017-10-23T10:33:38.232Z,100353.13
2017-10-23T10:34:44.030Z,100359.40
2017-10-23T10:35:49.792Z,100356.33
2017-10-23T10:36:56.326Z,100354.81
2017-10-23T10:38:02.916Z,100355.13
2017-10-23T10:39:08.683Z,100355.42
2017-10-23T10:40:14.484Z,100351.94
2017-10-23T10:41:21.025Z,100357.69
2017-10-23T10:42:26.806Z,100354.25
2017-10-23T10:43:32.578Z,100354.70
2017-10-23T10:44:38.396Z,100355.34
2017-10-23T10:45:44.193Z,100352.56
2017-10-23T10:46:49.966Z,100358.47
2017-10-23T10:47:55.780Z,100348.13
2017-10-23T10:49:01.555Z,100359.25
2017-10-23T10:50:07.354Z,100348.56
2017-10-23T10:51:13.163Z,100347.33
2017-10-23T10:52:18.944Z,100346.70
2017-10-23T10:53:24.709Z,100347.66
2017-10-23T10:54:31.246Z,100344.16
2017-10-23T10:55:37.014Z,100350.09
2017-10-23T10:56:43.576Z,100349.25
2017-10-23T10:57:50.134Z,100343.64
2017-10-23T10:58:56.666Z,100346.41
2017-10-23T11:00:02.439Z,100342.65
2017-10-23T11:01:08.963Z,100343.30
2017-10-23T11:02:14.906Z,100351.16
2017-10-23T11:03:20.671Z,100346.93
2017-10-23T11:04:26.441Z,100340.25
2017-10-23T11:05:32.210Z,100346.44
2017-10-23T11:06:37.975Z,100348.05
2017-10-23T11:07:43.821Z,100346.72
2017-10-23T11:08:49.608Z,100352.70
2017-10-23T11:09:55.378Z,100351.58
2017-10-23T11:11:01.157Z,100351.80
2017-10-23T11:12:06.932Z,100350.92
2017-10-23T11:13:12.734Z,100349.41
2017-10-23T11:14:18.503Z,100352.40
2017-10-23T11:15:25.031Z,100354.67
2017-10-23T11:16:30.804Z,100348.39
2017-10-23T11:17:37.337Z,100352.47
2017-10-23T11:18:43.140Z,100348.38
2017-10-23T11:19:48.983Z,100351.31
2017-10-23T11:20:54.761Z,100351.89
2017-10-23T11:22:00.529Z,100345.40
2017-10-23T11:23:07.059Z,100350.44
2017-10-23T11:24:12.908Z,100349.76
2017-10-23T11:25:18.668Z,100335.94
2017-10-23T11:26:24.863Z,100351.31
2017-10-23T11:27:30.636Z,100351.09
2017-10-23T11:28:36.438Z,100348.70
2017-10-23T11:29:42.225Z,100346.88
2017-10-23T11:30:48.002Z,100346.55
2017-10-23T11:31:54.539Z,100352.78
2017-10-23T11:33:00.326Z,100352.48
2017-10-23T11:34:05.766Z,100352.16
2017-10-23T11:35:11.562Z,100354.50
2017-10-23T11:36:17.962Z,100349.14
2017-10-23T11:37:23.729Z,100347.18
2017-10-23T11:38:29.495Z,100354.36
2017-10-23T11:39:35.263Z,100355.37
2017-10-23T11:40:41.063Z,100350.48
2017-10-23T11:41:46.911Z,100354.62
2017-10-23T11:42:52.688Z,100342.48
2017-10-23T11:43:59.219Z,100354.49
2017-10-23T11:45:04.681Z,100354.66
2017-10-23T11:46:11.253Z,100358.32
2017-10-23T11:47:17.054Z,100358.23
2017-10-23T11:48:22.827Z,100363.89
2017-10-23T11:49:29.378Z,100358.16
2017-10-23T11:50:35.906Z,100358.65
2017-10-23T11:51:41.695Z,100363.82
2017-10-23T11:52:48.298Z,100358.55
2017-10-23T11:53:54.079Z,100358.58
2017-10-23T11:55:00.616Z,100356.38
2017-10-23T11:56:06.388Z,100350.58
2017-10-23T11:57:12.958Z,100352.63
2017-10-23T11:58:18.731Z,100364.77
2017-10-23T11:59:24.494Z,100362.38
2017-10-23T12:00:30.251Z,100358.81
2017-10-23T12:01:36.020Z,100360.59
2017-10-23T12:02:42.583Z,100364.28
2017-10-23T12:03:48.960Z,100362.71
2017-10-23T12:04:54.737Z,100368.16
2017-10-23T12:06:00.505Z,100361.14
2017-10-23T12:07:06.273Z,100362.37
2017-10-23T12:08:12.830Z,100369.17
2017-10-23T12:09:19.363Z,100367.08
2017-10-23T12:10:25.132Z,100369.44
2017-10-23T12:11:31.673Z,100363.97
2017-10-23T12:12:37.437Z,100365.97
2017-10-23T12:13:43.997Z,100369.56
2017-10-23T12:14:49.441Z,100367.98
2017-10-23T12:15:54.876Z,100367.81
2017-10-23T12:16:59.975Z,100363.40
2017-10-23T12:18:06.172Z,100371.98
2017-10-23T12:19:11.785Z,100369.17
2017-10-23T12:20:17.205Z,100369.16
2017-10-23T12:21:23.735Z,100374.86
2017-10-23T12:22:29.486Z,100373.91
2017-10-23T12:23:35.263Z,100373.62
2017-10-23T12:24:41.053Z,100375.70
2017-10-23T12:25:46.827Z,100381.75
2017-10-23T12:26:52.616Z,100382.92
2017-10-23T12:27:58.389Z,100381.09
2017-10-23T12:29:04.154Z,100383.86
2017-10-23T12:30:10.705Z,100386.13
2017-10-23T12:31:16.519Z,100381.00
2017-10-23T12:32:22.301Z,100382.09